createdAt,value
2022-09-07T00:00:57.100Z,60.46
2022-09-07T00:03:26.639Z,60.71
2022-09-07T00:05:56.921Z,60.79
2022-09-07T00:08:27.738Z,60.83
2022-09-07T00:11:03.337Z,60.91
2022-09-07T00:13:34.699Z,61.05
2022-09-07T00:16:31.277Z,61.22
2022-09-07T00:19:04.489Z,61.18
2022-09-07T00:25:05.095Z,61.45
2022-09-07T00:27:35.270Z,61.53
2022-09-07T00:30:09.379Z,61.59
2022-09-07T00:32:46.263Z,61.71
2022-09-07T00:35:34.616Z,61.73
2022-09-07T00:38:06.522Z,61.77
2022-09-07T00:40:35.897Z,61.77
2022-09-07T00:43:16.207Z,62.04
2022-09-07T00:45:48.818Z,62.00
2022-09-07T00:48:21.058Z,62.19
2022-09-07T00:50:56.089Z,62.24
2022-09-07T00:53:30.858Z,62.26
2022-09-07T00:56:00.556Z,62.28
2022-09-07T00:58:30.395Z,62.31
2022-09-07T01:01:21.246Z,62.32
2022-09-07T01:03:52.247Z,62.85
2022-09-07T01:06:28.164Z,62.27
2022-09-07T01:38:11.992Z,62.97
2022-09-07T01:40:50.905Z,62.87
2022-09-07T01:44:07.939Z,62.83
2022-09-07T01:46:58.573Z,62.82
2022-09-07T01:49:50.342Z,62.92
2022-09-07T01:52:29.159Z,62.90
2022-09-07T01:58:45.354Z,62.94
2022-09-07T02:11:38.757Z,63.11
2022-09-07T02:19:13.199Z,63.31
2022-09-07T02:21:55.058Z,63.42
2022-09-07T02:50:50.588Z,64.62
2022-09-07T02:57:58.506Z,64.64
2022-09-07T03:08:44.632Z,64.79
2022-09-07T03:11:36.092Z,64.89
2022-09-07T03:14:22.012Z,64.95
2022-09-07T03:16:57.479Z,64.92
2022-09-07T03:19:28.642Z,65.02
2022-09-07T03:21:58.084Z,65.06
2022-09-07T03:24:26.370Z,65.06
2022-09-07T03:26:57.250Z,65.16
2022-09-07T03:29:24.513Z,65.19
2022-09-07T03:31:52.627Z,65.10
2022-09-07T03:34:19.555Z,65.21
2022-09-07T03:36:48.927Z,65.13
2022-09-07T03:39:15.780Z,65.22
2022-09-07T03:41:42.589Z,65.27
2022-09-07T03:44:09.956Z,65.31
2022-09-07T03:52:41.777Z,65.33
2022-09-07T03:55:13.564Z,65.40
2022-09-07T03:59:08.667Z,65.36
2022-09-07T04:02:12.629Z,65.47
2022-09-07T04:04:46.779Z,65.62
2022-09-07T04:07:26.293Z,65.59
2022-09-07T04:10:08.035Z,65.75
2022-09-07T04:12:48.442Z,65.77
2022-09-07T04:15:17.235Z,65.95
2022-09-07T04:17:54.752Z,65.90
2022-09-07T04:35:49.798Z,66.26
2022-09-07T04:39:07.398Z,66.20
2022-09-07T04:41:38.866Z,66.13
2022-09-07T04:44:07.483Z,66.12
2022-09-07T04:46:37.051Z,66.07
2022-09-07T04:49:23.774Z,66.17
2022-09-07T04:51:51.614Z,66.05
2022-09-07T04:54:20.156Z,66.07
2022-09-07T04:56:47.987Z,66.09
2022-09-07T04:59:15.754Z,65.88
2022-09-07T05:01:45.960Z,65.72
2022-09-07T05:04:13.768Z,65.32
2022-09-07T05:06:41.641Z,65.21
2022-09-07T05:09:10.677Z,65.14
2022-09-07T05:11:38.566Z,64.77
2022-09-07T05:14:06.306Z,64.58
2022-09-07T05:16:34.290Z,64.43
2022-09-07T05:19:04.953Z,64.48
2022-09-07T05:21:34.535Z,64.11
2022-09-07T05:24:02.987Z,64.05
2022-09-07T05:26:34.241Z,63.80
2022-09-07T05:31:52.239Z,63.29
2022-09-07T05:34:35.773Z,62.69
2022-09-07T05:37:03.520Z,62.48
2022-09-07T05:39:31.821Z,62.36
2022-09-07T05:41:59.801Z,62.03
2022-09-07T05:47:10.959Z,61.85
2022-09-07T05:49:39.070Z,61.88
2022-09-07T05:52:07.082Z,61.73
2022-09-07T05:54:40.849Z,61.32
2022-09-07T05:57:15.197Z,60.91
2022-09-07T06:00:17.222Z,60.82
2022-09-07T06:02:57.612Z,60.72
2022-09-07T06:05:28.989Z,60.20
2022-09-07T06:07:59.727Z,60.20
2022-09-07T06:10:45.712Z,59.93
2022-09-07T06:13:16.821Z,60.30
2022-09-07T06:15:48.386Z,60.18
2022-09-07T06:18:16.707Z,59.64
2022-09-07T06:21:15.427Z,59.57
2022-09-07T06:23:50.941Z,59.46
2022-09-07T06:26:34.871Z,59.32
2022-09-07T06:29:06.081Z,59.73
2022-09-07T06:31:34.546Z,59.38
2022-09-07T06:34:14.746Z,59.27
2022-09-07T06:36:51.997Z,59.00
2022-09-07T06:39:21.732Z,58.70
2022-09-07T06:42:01.461Z,58.19
2022-09-07T06:44:35.770Z,58.03
2022-09-07T06:47:07.753Z,58.04
2022-09-07T06:49:36.450Z,57.79
2022-09-07T06:52:04.613Z,57.74
2022-09-07T06:57:20.569Z,57.27
2022-09-07T06:59:58.955Z,57.13
2022-09-07T07:02:27.684Z,56.90
2022-09-07T07:05:24.573Z,56.84
2022-09-07T07:08:25.792Z,56.88
2022-09-07T07:11:09.375Z,56.23
2022-09-07T07:13:39.895Z,56.28
2022-09-07T07:16:13.829Z,55.41
2022-09-07T07:18:43.626Z,55.08
2022-09-07T07:21:14.784Z,54.66
2022-09-07T07:23:43.630Z,54.01
2022-09-07T07:26:19.654Z,53.53
2022-09-07T07:29:07.081Z,53.41
2022-09-07T07:31:39.906Z,53.06
2022-09-07T07:34:09.370Z,52.91
2022-09-07T07:36:37.874Z,52.48
2022-09-07T07:39:06.095Z,52.18
2022-09-07T07:44:23.375Z,52.23
2022-09-07T07:47:18.205Z,52.18
2022-09-07T07:50:30.466Z,52.21
2022-09-07T07:55:44.118Z,51.59
2022-09-07T07:58:13.245Z,51.34
2022-09-07T08:00:54.362Z,51.10
2022-09-07T08:03:28.149Z,50.40
2022-09-07T08:05:57.238Z,50.28
2022-09-07T08:08:28.242Z,49.09
2022-09-07T08:10:59.287Z,48.86
2022-09-07T08:13:34.189Z,47.92
2022-09-07T08:16:12.499Z,47.38
2022-09-07T08:18:47.056Z,47.75
2022-09-07T09:14:59.862Z,39.01
2022-09-07T09:54:53.362Z,33.82
2022-09-07T10:05:31.852Z,32.68
2022-09-07T10:12:33.768Z,32.46
2022-09-07T10:15:41.676Z,32.62
2022-09-07T10:18:42.346Z,32.95
2022-09-07T10:21:41.589Z,33.64
2022-09-07T10:24:08.270Z,33.77
2022-09-07T10:26:39.245Z,33.11
2022-09-07T10:29:16.046Z,33.25
2022-09-07T10:32:05.399Z,33.49
2022-09-07T10:34:49.208Z,33.26
2022-09-07T10:37:35.216Z,32.83
2022-09-07T10:40:28.100Z,32.60
2022-09-07T10:43:49.763Z,32.30
2022-09-07T10:46:57.765Z,32.13
2022-09-07T10:49:39.997Z,32.34
2022-09-07T10:52:59.601Z,32.20
2022-09-07T10:55:37.287Z,31.82
2022-09-07T10:59:01.355Z,31.75
2022-09-07T11:01:54.465Z,31.81
2022-09-07T11:04:58.853Z,31.87
2022-09-07T11:07:47.821Z,31.54
2022-09-07T11:10:52.245Z,31.54
2022-09-07T11:13:26.694Z,30.81
2022-09-07T11:16:03.982Z,31.13
2022-09-07T11:18:39.192Z,31.04
2022-09-07T11:21:12.897Z,30.90
2022-09-07T11:23:54.359Z,31.11
2022-09-07T11:26:45.286Z,31.12
2022-09-07T11:29:47.049Z,31.01
2022-09-07T11:32:35.704Z,31.20
2022-09-07T11:35:19.189Z,30.72
2022-09-07T11:37:59.092Z,30.49
2022-09-07T11:40:41.832Z,30.26
2022-09-07T11:43:33.338Z,30.25
2022-09-07T11:46:21.660Z,30.36
2022-09-07T11:48:55.429Z,30.37
2022-09-07T11:51:53.713Z,30.41
2022-09-07T11:54:42.103Z,30.54
2022-09-07T11:57:14.884Z,30.48
2022-09-07T12:00:11.876Z,30.59
2022-09-07T12:03:07.423Z,30.61
2022-09-07T12:05:59.512Z,30.71
2022-09-07T12:08:35.778Z,30.34
2022-09-07T12:11:23.342Z,30.43
2022-09-07T12:14:42.404Z,30.02
2022-09-07T12:17:34.030Z,30.41
2022-09-07T12:20:13.794Z,30.08
2022-09-07T12:23:04.583Z,30.26
2022-09-07T12:25:37.518Z,30.01
2022-09-07T12:28:04.351Z,30.13
2022-09-07T12:30:40.876Z,29.92
2022-09-07T12:33:29.515Z,30.16
2022-09-07T12:35:58.484Z,30.10
2022-09-07T12:38:31.609Z,30.17
2022-09-07T12:41:04.415Z,30.29
2022-09-07T12:43:49.088Z,30.48
2022-09-07T12:46:47.994Z,30.56
2022-09-07T12:49:20.695Z,30.80
2022-09-07T12:52:49.066Z,31.05
2022-09-07T12:56:15.592Z,31.05
2022-09-07T12:59:19.578Z,31.25
2022-09-07T13:03:49.500Z,31.40
2022-09-07T13:06:14.447Z,31.41
2022-09-07T13:08:49.714Z,31.24
2022-09-07T13:11:19.299Z,31.35
2022-09-07T13:14:08.675Z,31.24
2022-09-07T13:20:01.725Z,31.89
2022-09-07T13:22:32.074Z,32.16
2022-09-07T13:25:01.641Z,32.43
2022-09-07T13:28:01.607Z,32.16
2022-09-07T13:30:53.413Z,32.25
2022-09-07T13:33:29.444Z,32.50
2022-09-07T13:36:04.538Z,32.62
2022-09-07T13:38:36.100Z,32.48
2022-09-07T13:41:35.959Z,32.54
2022-09-07T13:44:04.614Z,32.71
2022-09-07T13:46:59.277Z,32.86
2022-09-07T13:50:04.839Z,32.91
2022-09-07T13:53:03.023Z,33.30
2022-09-07T13:55:36.000Z,33.74
2022-09-07T13:58:17.784Z,34.06
2022-09-07T14:00:54.170Z,33.97
2022-09-07T14:03:22.968Z,34.08
2022-09-07T14:06:32.112Z,34.25
2022-09-07T14:09:15.745Z,34.29
2022-09-07T14:11:54.147Z,34.49
2022-09-07T14:14:29.025Z,34.46
2022-09-07T14:17:09.786Z,34.46
2022-09-07T14:19:58.787Z,34.60
2022-09-07T14:22:34.575Z,34.83
2022-09-07T14:25:04.704Z,35.07
2022-09-07T14:27:38.838Z,35.18
2022-09-07T14:30:32.646Z,35.18
2022-09-07T14:33:04.247Z,35.28
2022-09-07T14:35:37.511Z,35.50
2022-09-07T14:41:17.550Z,35.67
2022-09-07T14:43:59.870Z,36.06
2022-09-07T14:46:34.962Z,36.08
2022-09-07T14:49:18.869Z,36.11
2022-09-07T14:51:45.814Z,36.26
2022-09-07T14:54:33.593Z,36.45
2022-09-07T14:57:31.410Z,36.61
2022-09-07T15:00:31.562Z,36.64
2022-09-07T15:02:59.119Z,36.74
2022-09-07T15:05:29.112Z,36.89
2022-09-07T15:08:03.334Z,36.85
2022-09-07T15:10:38.127Z,36.71
2022-09-07T15:13:24.458Z,36.84
2022-09-07T15:16:00.921Z,37.03
2022-09-07T15:18:55.781Z,37.17
2022-09-07T15:21:36.021Z,37.29
2022-09-07T15:24:03.952Z,37.34
2022-09-07T15:29:30.384Z,37.24
2022-09-07T15:32:04.511Z,37.41
2022-09-07T15:34:31.832Z,37.51
2022-09-07T15:37:00.263Z,37.57
2022-09-07T15:39:29.052Z,37.65
2022-09-07T15:41:55.974Z,37.58
2022-09-07T15:44:28.336Z,37.65
2022-09-07T15:49:47.766Z,37.76
2022-09-07T15:52:20.301Z,38.06
2022-09-07T15:54:56.657Z,38.25
2022-09-07T16:00:14.956Z,38.45
2022-09-07T16:05:31.180Z,38.47
2022-09-07T16:10:53.531Z,38.75
2022-09-07T16:13:23.429Z,38.91
2022-09-07T16:15:50.110Z,38.98
2022-09-07T16:18:18.161Z,39.02
2022-09-07T16:20:45.609Z,39.18
2022-09-07T16:23:16.472Z,39.28
2022-09-07T16:26:07.194Z,39.31
2022-09-07T16:28:37.646Z,39.48
2022-09-07T16:31:10.774Z,39.62
2022-09-07T16:34:00.360Z,39.79
2022-09-07T16:36:32.330Z,39.85
2022-09-07T16:39:00.882Z,40.01
2022-09-07T16:46:19.594Z,40.00
2022-09-07T17:01:46.555Z,41.23
2022-09-07T17:05:08.773Z,41.38
2022-09-07T17:09:04.639Z,41.44
2022-09-07T17:16:14.940Z,41.96
2022-09-07T17:43:45.280Z,42.69
2022-09-07T18:18:54.036Z,43.55
2022-09-07T18:47:40.037Z,44.63
2022-09-07T20:10:00.153Z,46.36
2022-09-07T20:12:45.268Z,46.34
2022-09-07T20:20:17.913Z,46.20
2022-09-07T21:08:02.584Z,47.79
2022-09-07T21:10:34.333Z,47.67
2022-09-07T21:13:05.273Z,47.52
2022-09-07T21:15:39.391Z,47.43
2022-09-07T21:18:11.914Z,47.42
2022-09-07T21:20:41.259Z,47.48
2022-09-07T21:23:11.227Z,47.56
2022-09-07T21:25:44.176Z,47.46
2022-09-07T21:28:18.274Z,47.36
2022-09-07T21:31:08.762Z,47.60
2022-09-07T21:33:37.871Z,47.79
2022-09-07T21:36:08.864Z,47.76
2022-09-07T21:38:43.552Z,47.81
2022-09-07T21:41:15.561Z,48.00
2022-09-07T21:43:43.929Z,47.98
2022-09-07T21:46:19.752Z,48.03
2022-09-07T21:48:47.801Z,48.06
2022-09-07T21:51:16.697Z,47.91
2022-09-07T21:53:45.759Z,48.22
2022-09-07T21:56:15.401Z,48.03
2022-09-07T21:58:57.978Z,48.09
2022-09-07T22:01:31.213Z,48.21
2022-09-07T22:04:05.347Z,48.11
2022-09-07T22:06:35.481Z,48.35
2022-09-07T22:09:05.200Z,48.43
2022-09-07T22:11:33.675Z,48.41
2022-09-07T22:14:04.568Z,48.50
2022-09-07T22:16:34.752Z,48.71
2022-09-07T22:19:04.036Z,48.69
2022-09-07T22:21:35.688Z,48.86
2022-09-07T22:24:06.892Z,48.86
2022-09-07T22:26:45.336Z,49.03
2022-09-07T22:29:16.729Z,48.94
2022-09-07T22:31:47.947Z,49.01
2022-09-07T22:34:17.534Z,49.11
2022-09-07T22:36:46.046Z,49.26
2022-09-07T22:39:19.051Z,49.23
2022-09-07T22:41:47.722Z,49.33
2022-09-07T22:44:18.570Z,49.39
2022-09-07T22:46:47.905Z,49.49
2022-09-07T22:49:17.080Z,49.61
2022-09-07T22:51:45.502Z,49.62
2022-09-07T22:54:14.354Z,49.67
2022-09-07T22:56:42.944Z,49.67
2022-09-07T22:59:12.423Z,49.92
2022-09-07T23:01:40.881Z,49.81
2022-09-07T23:04:17.012Z,49.79
2022-09-07T23:06:55.953Z,49.82
2022-09-07T23:09:25.022Z,49.95
2022-09-07T23:11:53.149Z,50.03
2022-09-07T23:14:22.439Z,50.10
2022-09-07T23:16:51.133Z,50.08
2022-09-07T23:19:20.498Z,50.08
2022-09-07T23:21:48.767Z,50.21
2022-09-07T23:24:19.422Z,50.33
2022-09-07T23:26:48.420Z,50.35
2022-09-07T23:29:16.663Z,50.44
2022-09-07T23:31:46.674Z,50.33
2022-09-07T23:34:33.447Z,50.63
2022-09-07T23:49:08.569Z,50.87
2022-09-07T23:51:36.373Z,50.90
2022-09-07T23:54:04.133Z,50.92
2022-09-07T23:56:32.793Z,50.93
2022-09-07T23:59:00.697Z,50.99
